TOM5BW LEMH-EGCC
Flight info
| Callsign | TOM5BW |
|---|---|
| Flight time | 2h 19m |
| Altitude | 38000 |
| Route | MEROS N853 LUMAS DCT SOFFY DCT MRM DCT MTL DCT ETREK DCT MADOT DCT MOPEM DCT CACHI DCT AVLON DCT OKRIX DCT BRY DCT CLM DCT KOPOR DCT VESAN DCT RATUK DCT SOVAT L613 SANDY UN57 WELIN T420 ELVOS |
| Aircraft | B738/M-SDE2E3FGHIRWXY/LB1 |
Departure
| Time | 2026-05-08 17:22 |
|---|---|
| Airport | Menorca Airport (LEMH) |
Arrival
| Time | 2026-05-08 19:41 |
|---|---|
| Airport | Manchester Airport (EGCC) |
| Time | Latitude | Longitude | Altitude | Speed | Heading |
|---|---|---|---|---|---|
| 2026-05-08 16:56 | 39.86466 | 4.22405 | 302 ft | 0 kts | 99° |
| 2026-05-08 17:11 | 39.86469 | 4.22384 | 314 ft | 4 kts | 99° |
| 2026-05-08 17:11 | 39.86471 | 4.22350 | 299 ft | 4 kts | 76° |
| 2026-05-08 17:11 | 39.86459 | 4.22321 | 300 ft | 4 kts | 34° |
| 2026-05-08 17:12 | 39.86444 | 4.22312 | 299 ft | 1 kts | 9° |
| 2026-05-08 17:12 | 39.86442 | 4.22312 | 299 ft | 0 kts | 9° |
| 2026-05-08 17:15 | 39.86463 | 4.22316 | 300 ft | 5 kts | 8° |
| 2026-05-08 17:16 | 39.86518 | 4.22317 | 301 ft | 10 kts | 330° |
| 2026-05-08 17:16 | 39.86540 | 4.22208 | 304 ft | 15 kts | 287° |
| 2026-05-08 17:16 | 39.86640 | 4.22182 | 302 ft | 18 kts | 8° |
| 2026-05-08 17:16 | 39.86763 | 4.22206 | 303 ft | 18 kts | 9° |
| 2026-05-08 17:17 | 39.86873 | 4.22229 | 306 ft | 17 kts | 9° |
| 2026-05-08 17:17 | 39.86988 | 4.22254 | 305 ft | 16 kts | 9° |
| 2026-05-08 17:17 | 39.87073 | 4.22269 | 306 ft | 0 kts | 10° |
| 2026-05-08 17:17 | 39.87074 | 4.22269 | 306 ft | 1 kts | 10° |
| 2026-05-08 17:18 | 39.87096 | 4.22274 | 308 ft | 5 kts | 9° |
| 2026-05-08 17:18 | 39.87141 | 4.22284 | 308 ft | 8 kts | 11° |
| 2026-05-08 17:18 | 39.87205 | 4.22298 | 309 ft | 9 kts | 9° |
| 2026-05-08 17:18 | 39.87268 | 4.22311 | 308 ft | 8 kts | 9° |
| 2026-05-08 17:19 | 39.87279 | 4.22313 | 308 ft | 0 kts | 9° |
| 2026-05-08 17:20 | 39.87293 | 4.22316 | 308 ft | 4 kts | 9° |
| 2026-05-08 17:20 | 39.87344 | 4.22326 | 309 ft | 10 kts | 4° |
| 2026-05-08 17:20 | 39.87393 | 4.22278 | 309 ft | 9 kts | 288° |
| 2026-05-08 17:20 | 39.87391 | 4.22163 | 309 ft | 16 kts | 252° |
| 2026-05-08 17:21 | 39.87331 | 4.22087 | 309 ft | 8 kts | 189° |
| 2026-05-08 17:21 | 39.87269 | 4.22073 | 309 ft | 14 kts | 190° |
| 2026-05-08 17:21 | 39.86921 | 4.22002 | 306 ft | 90 kts | 188° |
| 2026-05-08 17:21 | 39.86077 | 4.21837 | 301 ft | 155 kts | 186° |
| 2026-05-08 17:22 | 39.84970 | 4.21582 | 882 ft | 165 kts | 186° |
| 2026-05-08 17:22 | 39.83785 | 4.21307 | 1580 ft | 178 kts | 186° |
| 2026-05-08 17:22 | 39.82553 | 4.21026 | 2398 ft | 188 kts | 185° |
| 2026-05-08 17:22 | 39.81195 | 4.20764 | 3014 ft | 201 kts | 186° |
| 2026-05-08 17:23 | 39.79839 | 4.20489 | 3606 ft | 210 kts | 187° |
| 2026-05-08 17:23 | 39.78393 | 4.20171 | 4162 ft | 222 kts | 188° |
| 2026-05-08 17:23 | 39.76773 | 4.19855 | 4451 ft | 252 kts | 178° |
| 2026-05-08 17:23 | 39.75080 | 4.20622 | 5052 ft | 267 kts | 144° |
| 2026-05-08 17:24 | 39.73923 | 4.22502 | 6021 ft | 271 kts | 112° |
| 2026-05-08 17:24 | 39.73748 | 4.24957 | 6882 ft | 284 kts | 79° |
| 2026-05-08 17:24 | 39.74647 | 4.27264 | 7666 ft | 292 kts | 47° |
| 2026-05-08 17:24 | 39.76103 | 4.29119 | 8535 ft | 298 kts | 50° |
| 2026-05-08 17:25 | 39.77205 | 4.31434 | 9345 ft | 304 kts | 55° |
| 2026-05-08 17:25 | 39.78673 | 4.33437 | 10129 ft | 308 kts | 34° |
| 2026-05-08 17:25 | 39.80548 | 4.34925 | 10537 ft | 328 kts | 23° |
| 2026-05-08 17:25 | 39.82725 | 4.36109 | 10791 ft | 349 kts | 14° |
| 2026-05-08 17:26 | 39.85111 | 4.36791 | 11442 ft | 353 kts | 2° |
| 2026-05-08 17:26 | 39.87555 | 4.36846 | 12250 ft | 351 kts | 350° |
| 2026-05-08 17:26 | 39.89938 | 4.36238 | 13095 ft | 347 kts | 337° |
| 2026-05-08 17:26 | 39.92139 | 4.34993 | 13910 ft | 344 kts | 324° |
| 2026-05-08 17:27 | 39.94076 | 4.33206 | 14647 ft | 341 kts | 313° |
| 2026-05-08 17:27 | 39.95668 | 4.30998 | 15382 ft | 338 kts | 303° |
| 2026-05-08 17:27 | 39.96927 | 4.28420 | 16121 ft | 338 kts | 298° |
| 2026-05-08 17:27 | 39.98570 | 4.26160 | 16797 ft | 355 kts | 321° |
| 2026-05-08 17:28 | 40.00878 | 4.24861 | 17539 ft | 371 kts | 341° |
| 2026-05-08 17:28 | 40.03505 | 4.24614 | 18248 ft | 388 kts | 1° |
| 2026-05-08 17:28 | 40.06153 | 4.25589 | 18854 ft | 402 kts | 16° |
| 2026-05-08 17:28 | 40.08817 | 4.26642 | 19463 ft | 400 kts | 7° |
| 2026-05-08 17:29 | 40.11559 | 4.27320 | 20043 ft | 402 kts | 3° |
| 2026-05-08 17:29 | 40.14329 | 4.27889 | 20631 ft | 405 kts | 3° |
| 2026-05-08 17:29 | 40.17126 | 4.28466 | 21241 ft | 408 kts | 3° |
| 2026-05-08 17:29 | 40.19944 | 4.29089 | 21802 ft | 411 kts | 4° |
| 2026-05-08 17:30 | 40.22776 | 4.29756 | 22288 ft | 415 kts | 5° |
| 2026-05-08 17:30 | 40.25625 | 4.30455 | 22740 ft | 419 kts | 5° |
| 2026-05-08 17:30 | 40.28503 | 4.31179 | 23213 ft | 423 kts | 5° |
| 2026-05-08 17:30 | 40.31400 | 4.31916 | 23670 ft | 426 kts | 5° |
| 2026-05-08 17:31 | 40.34315 | 4.32659 | 24062 ft | 428 kts | 5° |
| 2026-05-08 17:31 | 40.37223 | 4.33401 | 24451 ft | 431 kts | 5° |
| 2026-05-08 17:31 | 40.40217 | 4.34164 | 24844 ft | 433 kts | 6° |
| 2026-05-08 17:31 | 40.43142 | 4.34909 | 25213 ft | 436 kts | 6° |
| 2026-05-08 17:32 | 40.46132 | 4.35670 | 25577 ft | 439 kts | 6° |
| 2026-05-08 17:32 | 40.49137 | 4.36436 | 25946 ft | 441 kts | 6° |
| 2026-05-08 17:32 | 40.52160 | 4.37194 | 26292 ft | 443 kts | 6° |
| 2026-05-08 17:32 | 40.55205 | 4.37925 | 26649 ft | 446 kts | 6° |
| 2026-05-08 17:33 | 40.58268 | 4.38649 | 26987 ft | 448 kts | 6° |
| 2026-05-08 17:33 | 40.61349 | 4.39376 | 27323 ft | 451 kts | 6° |
| 2026-05-08 17:33 | 40.64443 | 4.40111 | 27647 ft | 453 kts | 6° |
| 2026-05-08 17:33 | 40.67549 | 4.40851 | 27976 ft | 455 kts | 6° |
| 2026-05-08 17:34 | 40.70681 | 4.41600 | 28289 ft | 458 kts | 6° |
| 2026-05-08 17:34 | 40.73825 | 4.42354 | 28597 ft | 460 kts | 6° |
| 2026-05-08 17:34 | 40.76985 | 4.43114 | 28896 ft | 463 kts | 7° |
| 2026-05-08 17:34 | 40.80166 | 4.43880 | 29185 ft | 465 kts | 7° |
| 2026-05-08 17:35 | 40.83354 | 4.44648 | 29473 ft | 467 kts | 7° |
| 2026-05-08 17:35 | 40.86559 | 4.45421 | 29748 ft | 470 kts | 7° |
| 2026-05-08 17:35 | 40.89788 | 4.46200 | 30011 ft | 472 kts | 7° |
| 2026-05-08 17:35 | 40.93030 | 4.46983 | 30247 ft | 474 kts | 7° |
| 2026-05-08 17:36 | 40.96283 | 4.47772 | 30468 ft | 476 kts | 7° |
| 2026-05-08 17:36 | 40.99549 | 4.48565 | 30692 ft | 478 kts | 7° |
| 2026-05-08 17:36 | 41.02825 | 4.49361 | 30913 ft | 480 kts | 7° |
| 2026-05-08 17:36 | 41.06076 | 4.50152 | 31142 ft | 481 kts | 7° |
| 2026-05-08 17:37 | 41.09366 | 4.50953 | 31446 ft | 481 kts | 7° |
| 2026-05-08 17:37 | 41.12648 | 4.51752 | 31794 ft | 479 kts | 7° |
| 2026-05-08 17:37 | 41.15928 | 4.52551 | 32122 ft | 478 kts | 6° |
| 2026-05-08 17:37 | 41.19198 | 4.53348 | 32412 ft | 478 kts | 6° |
| 2026-05-08 17:38 | 41.22478 | 4.54148 | 32706 ft | 478 kts | 6° |
| 2026-05-08 17:38 | 41.25760 | 4.54950 | 33031 ft | 477 kts | 6° |
| 2026-05-08 17:38 | 41.29017 | 4.55746 | 33364 ft | 476 kts | 6° |
| 2026-05-08 17:38 | 41.32282 | 4.56546 | 33677 ft | 476 kts | 6° |
| 2026-05-08 17:39 | 41.35542 | 4.57345 | 33990 ft | 475 kts | 6° |
| 2026-05-08 17:39 | 41.38803 | 4.58145 | 34266 ft | 474 kts | 6° |
| 2026-05-08 17:39 | 41.42048 | 4.58943 | 34528 ft | 474 kts | 6° |
| 2026-05-08 17:39 | 41.45248 | 4.59729 | 34771 ft | 473 kts | 6° |
| 2026-05-08 17:40 | 41.48483 | 4.60525 | 35030 ft | 473 kts | 6° |
| 2026-05-08 17:40 | 41.51717 | 4.61322 | 35299 ft | 472 kts | 6° |
| 2026-05-08 17:40 | 41.54944 | 4.62118 | 35552 ft | 471 kts | 6° |
| 2026-05-08 17:40 | 41.58177 | 4.62916 | 35780 ft | 471 kts | 6° |
| 2026-05-08 17:41 | 41.61403 | 4.63713 | 36036 ft | 471 kts | 6° |
| 2026-05-08 17:41 | 41.64621 | 4.64510 | 36303 ft | 470 kts | 6° |
| 2026-05-08 17:41 | 41.67834 | 4.65305 | 36548 ft | 469 kts | 6° |
| 2026-05-08 17:41 | 41.71045 | 4.66101 | 36750 ft | 470 kts | 7° |
| 2026-05-08 17:42 | 41.74257 | 4.66949 | 36965 ft | 471 kts | 10° |
| 2026-05-08 17:42 | 41.77429 | 4.68062 | 37218 ft | 471 kts | 12° |
| 2026-05-08 17:42 | 41.80581 | 4.69302 | 37481 ft | 470 kts | 13° |
| 2026-05-08 17:42 | 41.83709 | 4.70584 | 37708 ft | 470 kts | 14° |
| 2026-05-08 17:43 | 41.86798 | 4.71856 | 37885 ft | 470 kts | 14° |
| 2026-05-08 17:43 | 41.89931 | 4.73133 | 38023 ft | 472 kts | 13° |
| 2026-05-08 17:43 | 41.96251 | 4.75660 | 38029 ft | 474 kts | 13° |
| 2026-05-08 17:44 | 42.02569 | 4.78155 | 38020 ft | 472 kts | 13° |
| 2026-05-08 17:44 | 42.08870 | 4.80640 | 38024 ft | 471 kts | 13° |
| 2026-05-08 17:45 | 42.15149 | 4.83122 | 38020 ft | 469 kts | 13° |
| 2026-05-08 17:45 | 42.21413 | 4.85605 | 38026 ft | 469 kts | 13° |
| 2026-05-08 17:46 | 42.27670 | 4.88092 | 38021 ft | 469 kts | 13° |
| 2026-05-08 17:46 | 42.33934 | 4.90586 | 38030 ft | 469 kts | 13° |
| 2026-05-08 17:47 | 42.40203 | 4.93088 | 38028 ft | 470 kts | 13° |
| 2026-05-08 17:47 | 42.45425 | 4.95176 | 38025 ft | 471 kts | 13° |
| 2026-05-08 17:48 | 42.52794 | 4.98128 | 38024 ft | 473 kts | 13° |
| 2026-05-08 17:48 | 42.59106 | 5.00662 | 38028 ft | 474 kts | 13° |
| 2026-05-08 17:49 | 42.62316 | 5.01556 | 38020 ft | 470 kts | 2° |
| 2026-05-08 17:49 | 42.65556 | 5.01714 | 38023 ft | 464 kts | 352° |
| 2026-05-08 17:49 | 42.71939 | 5.00927 | 38027 ft | 463 kts | 350° |
| 2026-05-08 17:50 | 42.78367 | 5.00045 | 38025 ft | 464 kts | 350° |
| 2026-05-08 17:50 | 42.84808 | 4.99217 | 38026 ft | 465 kts | 351° |
| 2026-05-08 17:51 | 42.91244 | 4.98429 | 38024 ft | 465 kts | 351° |
| 2026-05-08 17:51 | 42.97687 | 4.97651 | 38025 ft | 464 kts | 351° |
| 2026-05-08 17:52 | 43.04122 | 4.96872 | 38022 ft | 464 kts | 351° |
| 2026-05-08 17:53 | 43.13766 | 4.95698 | 38025 ft | 463 kts | 351° |
| 2026-05-08 17:53 | 43.20191 | 4.94913 | 38030 ft | 462 kts | 351° |
| 2026-05-08 17:54 | 43.26541 | 4.94136 | 38021 ft | 462 kts | 351° |
| 2026-05-08 17:54 | 43.32939 | 4.93351 | 38014 ft | 461 kts | 351° |
| 2026-05-08 17:55 | 43.39325 | 4.92566 | 38022 ft | 460 kts | 351° |
| 2026-05-08 17:55 | 43.45696 | 4.91781 | 38023 ft | 459 kts | 351° |
| 2026-05-08 17:56 | 43.50993 | 4.91127 | 38024 ft | 459 kts | 351° |
| 2026-05-08 17:56 | 43.58431 | 4.90207 | 38028 ft | 459 kts | 351° |
| 2026-05-08 17:57 | 43.64792 | 4.89418 | 38027 ft | 459 kts | 351° |
| 2026-05-08 17:57 | 43.70072 | 4.88762 | 38023 ft | 459 kts | 351° |
| 2026-05-08 17:58 | 43.76429 | 4.87971 | 38029 ft | 459 kts | 351° |
| 2026-05-08 17:58 | 43.82793 | 4.87177 | 38022 ft | 459 kts | 351° |
| 2026-05-08 17:59 | 43.89150 | 4.86383 | 38028 ft | 459 kts | 351° |
| 2026-05-08 17:59 | 43.95507 | 4.85586 | 38023 ft | 458 kts | 351° |
| 2026-05-08 18:00 | 44.01859 | 4.84789 | 38023 ft | 458 kts | 351° |
| 2026-05-08 18:00 | 44.11387 | 4.83590 | 38022 ft | 458 kts | 351° |
| 2026-05-08 18:01 | 44.17736 | 4.82788 | 38025 ft | 458 kts | 351° |
| 2026-05-08 18:01 | 44.24079 | 4.81986 | 38023 ft | 458 kts | 351° |
| 2026-05-08 18:02 | 44.30390 | 4.81186 | 38023 ft | 457 kts | 351° |
| 2026-05-08 18:02 | 44.36730 | 4.80381 | 38018 ft | 457 kts | 351° |
| 2026-05-08 18:03 | 44.43070 | 4.79574 | 38010 ft | 457 kts | 351° |
| 2026-05-08 18:03 | 44.49398 | 4.78766 | 38010 ft | 457 kts | 351° |
| 2026-05-08 18:04 | 44.55724 | 4.77947 | 38011 ft | 456 kts | 350° |
| 2026-05-08 18:04 | 44.61983 | 4.76696 | 38015 ft | 454 kts | 347° |
| 2026-05-08 18:05 | 44.68209 | 4.75235 | 37997 ft | 453 kts | 347° |
| 2026-05-08 18:05 | 44.74426 | 4.73803 | 37997 ft | 453 kts | 347° |
| 2026-05-08 18:06 | 44.80646 | 4.72410 | 37991 ft | 452 kts | 347° |
| 2026-05-08 18:06 | 44.86856 | 4.71029 | 37994 ft | 451 kts | 348° |
| 2026-05-08 18:07 | 44.93052 | 4.69647 | 37993 ft | 451 kts | 347° |
| 2026-05-08 18:07 | 44.99251 | 4.68261 | 37995 ft | 450 kts | 347° |
| 2026-05-08 18:08 | 45.05422 | 4.66876 | 37988 ft | 449 kts | 347° |
| 2026-05-08 18:08 | 45.11591 | 4.65489 | 37988 ft | 448 kts | 347° |
| 2026-05-08 18:09 | 45.17743 | 4.64104 | 37983 ft | 448 kts | 347° |
| 2026-05-08 18:09 | 45.23853 | 4.62717 | 37976 ft | 447 kts | 347° |
| 2026-05-08 18:10 | 45.30002 | 4.61312 | 37971 ft | 447 kts | 347° |
| 2026-05-08 18:10 | 45.36140 | 4.59905 | 37968 ft | 447 kts | 347° |
| 2026-05-08 18:11 | 45.42281 | 4.58496 | 37975 ft | 447 kts | 347° |
| 2026-05-08 18:11 | 45.48418 | 4.57085 | 37961 ft | 447 kts | 347° |
| 2026-05-08 18:12 | 45.54566 | 4.55669 | 37973 ft | 447 kts | 347° |
| 2026-05-08 18:12 | 45.60713 | 4.54249 | 37968 ft | 447 kts | 347° |
| 2026-05-08 18:13 | 45.66858 | 4.52827 | 37966 ft | 447 kts | 347° |
| 2026-05-08 18:13 | 45.73007 | 4.51401 | 37967 ft | 447 kts | 347° |
| 2026-05-08 18:14 | 45.79102 | 4.49985 | 37971 ft | 447 kts | 347° |
| 2026-05-08 18:14 | 45.85239 | 4.48555 | 37974 ft | 446 kts | 347° |
| 2026-05-08 18:15 | 45.91361 | 4.47126 | 37973 ft | 446 kts | 347° |
| 2026-05-08 18:15 | 45.97480 | 4.45694 | 37972 ft | 445 kts | 347° |
| 2026-05-08 18:16 | 46.03583 | 4.44263 | 37967 ft | 444 kts | 347° |
| 2026-05-08 18:16 | 46.09675 | 4.42831 | 37984 ft | 443 kts | 346° |
| 2026-05-08 18:17 | 46.15764 | 4.41396 | 37974 ft | 443 kts | 346° |
| 2026-05-08 18:17 | 46.21836 | 4.39962 | 37972 ft | 442 kts | 346° |
| 2026-05-08 18:18 | 46.27903 | 4.38525 | 37971 ft | 441 kts | 346° |
| 2026-05-08 18:18 | 46.33882 | 4.36657 | 37976 ft | 438 kts | 342° |
| 2026-05-08 18:19 | 46.39748 | 4.34519 | 37977 ft | 437 kts | 341° |
| 2026-05-08 18:19 | 46.45643 | 4.32383 | 37977 ft | 436 kts | 342° |
| 2026-05-08 18:20 | 46.51538 | 4.30289 | 37970 ft | 436 kts | 342° |
| 2026-05-08 18:20 | 46.57434 | 4.28210 | 37981 ft | 435 kts | 342° |
| 2026-05-08 18:21 | 46.63318 | 4.26132 | 37973 ft | 435 kts | 342° |
| 2026-05-08 18:21 | 46.69196 | 4.24052 | 37980 ft | 434 kts | 342° |
| 2026-05-08 18:22 | 46.75064 | 4.21969 | 37991 ft | 434 kts | 342° |
| 2026-05-08 18:22 | 46.80931 | 4.19881 | 37986 ft | 434 kts | 342° |
| 2026-05-08 18:23 | 46.86758 | 4.17803 | 37985 ft | 434 kts | 342° |
| 2026-05-08 18:23 | 46.92619 | 4.15708 | 37989 ft | 433 kts | 342° |
| 2026-05-08 18:24 | 46.98508 | 4.13598 | 37989 ft | 433 kts | 342° |
| 2026-05-08 18:24 | 47.04331 | 4.11508 | 37984 ft | 433 kts | 342° |
| 2026-05-08 18:25 | 47.10049 | 4.08888 | 37997 ft | 428 kts | 334° |
| 2026-05-08 18:25 | 47.15551 | 4.05562 | 37989 ft | 427 kts | 333° |
| 2026-05-08 18:26 | 47.21045 | 4.02211 | 37997 ft | 427 kts | 334° |
| 2026-05-08 18:26 | 47.26549 | 3.98917 | 37992 ft | 427 kts | 334° |
| 2026-05-08 18:27 | 47.31137 | 3.96190 | 37995 ft | 427 kts | 334° |
| 2026-05-08 18:27 | 47.37575 | 3.92361 | 38000 ft | 427 kts | 334° |
| 2026-05-08 18:28 | 47.43085 | 3.89073 | 37991 ft | 427 kts | 334° |
| 2026-05-08 18:28 | 47.48591 | 3.85779 | 38007 ft | 427 kts | 334° |
| 2026-05-08 18:29 | 47.54094 | 3.82480 | 38004 ft | 427 kts | 334° |
| 2026-05-08 18:29 | 47.59602 | 3.79172 | 38006 ft | 427 kts | 334° |
| 2026-05-08 18:30 | 47.65105 | 3.75856 | 38004 ft | 427 kts | 333° |
| 2026-05-08 18:30 | 47.70461 | 3.72375 | 38005 ft | 425 kts | 332° |
| 2026-05-08 18:31 | 47.75869 | 3.68735 | 38009 ft | 425 kts | 332° |
| 2026-05-08 18:31 | 47.81252 | 3.65121 | 38008 ft | 425 kts | 332° |
| 2026-05-08 18:32 | 47.86614 | 3.61540 | 38009 ft | 425 kts | 332° |
| 2026-05-08 18:32 | 47.92012 | 3.57937 | 38009 ft | 425 kts | 332° |
| 2026-05-08 18:33 | 47.97377 | 3.54350 | 38011 ft | 424 kts | 332° |
| 2026-05-08 18:33 | 48.02764 | 3.50740 | 38013 ft | 424 kts | 332° |
| 2026-05-08 18:34 | 48.08144 | 3.47126 | 38019 ft | 424 kts | 332° |
| 2026-05-08 18:34 | 48.13519 | 3.43507 | 38028 ft | 423 kts | 332° |
| 2026-05-08 18:35 | 48.18882 | 3.39888 | 38022 ft | 423 kts | 332° |
| 2026-05-08 18:35 | 48.24250 | 3.36256 | 38024 ft | 422 kts | 332° |
| 2026-05-08 18:36 | 48.29603 | 3.32627 | 38017 ft | 422 kts | 332° |
| 2026-05-08 18:36 | 48.34872 | 3.29047 | 38034 ft | 422 kts | 332° |
| 2026-05-08 18:37 | 48.40227 | 3.25399 | 38024 ft | 422 kts | 332° |
| 2026-05-08 18:37 | 48.45568 | 3.21752 | 38036 ft | 421 kts | 332° |
| 2026-05-08 18:38 | 48.50883 | 3.18116 | 38030 ft | 421 kts | 333° |
| 2026-05-08 18:38 | 48.55990 | 3.14613 | 38028 ft | 421 kts | 333° |
| 2026-05-08 18:39 | 48.61324 | 3.10947 | 38027 ft | 421 kts | 333° |
| 2026-05-08 18:39 | 48.66652 | 3.07275 | 38033 ft | 421 kts | 333° |
| 2026-05-08 18:40 | 48.71989 | 3.03589 | 38033 ft | 420 kts | 333° |
| 2026-05-08 18:40 | 48.77312 | 2.99905 | 38031 ft | 421 kts | 333° |
| 2026-05-08 18:41 | 48.82300 | 2.96444 | 38043 ft | 420 kts | 333° |
| 2026-05-08 18:41 | 48.87698 | 2.92690 | 38045 ft | 421 kts | 333° |
| 2026-05-08 18:42 | 48.93017 | 2.88982 | 38049 ft | 421 kts | 333° |
| 2026-05-08 18:42 | 48.98345 | 2.85260 | 38054 ft | 421 kts | 333° |
| 2026-05-08 18:43 | 49.02805 | 2.82137 | 38049 ft | 421 kts | 333° |
| 2026-05-08 18:43 | 49.08066 | 2.78446 | 38053 ft | 421 kts | 333° |
| 2026-05-08 18:44 | 49.13383 | 2.74705 | 38053 ft | 421 kts | 333° |
| 2026-05-08 18:44 | 49.18703 | 2.70955 | 38053 ft | 421 kts | 333° |
| 2026-05-08 18:45 | 49.24012 | 2.67203 | 38052 ft | 421 kts | 333° |
| 2026-05-08 18:45 | 49.29340 | 2.63429 | 38060 ft | 421 kts | 333° |
| 2026-05-08 18:46 | 49.34658 | 2.59652 | 38053 ft | 421 kts | 333° |
| 2026-05-08 18:46 | 49.39969 | 2.55871 | 38056 ft | 421 kts | 333° |
| 2026-05-08 18:47 | 49.45295 | 2.52071 | 38054 ft | 421 kts | 333° |
| 2026-05-08 18:47 | 49.50577 | 2.48294 | 38053 ft | 421 kts | 333° |
| 2026-05-08 18:48 | 49.55931 | 2.44455 | 38051 ft | 421 kts | 333° |
| 2026-05-08 18:48 | 49.61214 | 2.40658 | 38055 ft | 422 kts | 333° |
| 2026-05-08 18:49 | 49.66531 | 2.36827 | 38052 ft | 422 kts | 333° |
| 2026-05-08 18:49 | 49.71859 | 2.32979 | 38056 ft | 422 kts | 333° |
| 2026-05-08 18:50 | 49.77180 | 2.29127 | 38059 ft | 422 kts | 333° |
| 2026-05-08 18:50 | 49.82502 | 2.25265 | 38065 ft | 422 kts | 333° |
| 2026-05-08 18:51 | 49.87831 | 2.21388 | 38060 ft | 423 kts | 333° |
| 2026-05-08 18:51 | 49.93160 | 2.17502 | 38066 ft | 423 kts | 333° |
| 2026-05-08 18:52 | 49.98484 | 2.13610 | 38064 ft | 423 kts | 333° |
| 2026-05-08 18:52 | 50.03817 | 2.09702 | 38064 ft | 423 kts | 333° |
| 2026-05-08 18:53 | 50.09102 | 2.05819 | 38067 ft | 423 kts | 333° |
| 2026-05-08 18:53 | 50.14432 | 2.01894 | 38068 ft | 423 kts | 332° |
| 2026-05-08 18:54 | 50.19755 | 1.97964 | 38071 ft | 423 kts | 332° |
| 2026-05-08 18:54 | 50.25078 | 1.94024 | 38072 ft | 423 kts | 332° |
| 2026-05-08 18:55 | 50.33065 | 1.88094 | 38076 ft | 423 kts | 332° |
| 2026-05-08 18:56 | 50.38384 | 1.84133 | 38074 ft | 424 kts | 332° |
| 2026-05-08 18:56 | 50.43620 | 1.80223 | 38079 ft | 424 kts | 332° |
| 2026-05-08 18:57 | 50.48949 | 1.76234 | 38076 ft | 424 kts | 332° |
| 2026-05-08 18:57 | 50.54280 | 1.72233 | 38079 ft | 424 kts | 332° |
| 2026-05-08 18:58 | 50.59391 | 1.67826 | 38071 ft | 415 kts | 320° |
| 2026-05-08 18:58 | 50.63725 | 1.62054 | 38072 ft | 413 kts | 317° |
| 2026-05-08 18:59 | 50.68075 | 1.56146 | 38083 ft | 413 kts | 317° |
| 2026-05-08 18:59 | 50.72438 | 1.50258 | 38078 ft | 413 kts | 318° |
| 2026-05-08 19:00 | 50.76815 | 1.44376 | 38087 ft | 413 kts | 318° |
| 2026-05-08 19:00 | 50.81191 | 1.38493 | 38096 ft | 413 kts | 318° |
| 2026-05-08 19:01 | 50.85572 | 1.32590 | 38097 ft | 414 kts | 318° |
| 2026-05-08 19:01 | 50.89957 | 1.26668 | 38101 ft | 415 kts | 317° |
| 2026-05-08 19:02 | 50.94353 | 1.20715 | 38099 ft | 415 kts | 317° |
| 2026-05-08 19:02 | 50.98752 | 1.14741 | 38105 ft | 416 kts | 317° |
| 2026-05-08 19:03 | 51.03156 | 1.08747 | 38110 ft | 418 kts | 317° |
| 2026-05-08 19:03 | 51.07598 | 1.02682 | 38104 ft | 423 kts | 317° |
| 2026-05-08 19:04 | 51.12078 | 0.96551 | 38109 ft | 425 kts | 317° |
| 2026-05-08 19:04 | 51.16577 | 0.90379 | 38110 ft | 427 kts | 317° |
| 2026-05-08 19:05 | 51.20920 | 0.84404 | 38103 ft | 427 kts | 317° |
| 2026-05-08 19:05 | 51.25030 | 0.78736 | 38112 ft | 426 kts | 317° |
| 2026-05-08 19:06 | 51.29514 | 0.72536 | 38118 ft | 425 kts | 317° |
| 2026-05-08 19:06 | 51.33971 | 0.66358 | 38114 ft | 423 kts | 317° |
| 2026-05-08 19:07 | 51.38000 | 0.60757 | 38092 ft | 422 kts | 317° |
| 2026-05-08 19:07 | 51.42427 | 0.54587 | 38100 ft | 420 kts | 316° |
| 2026-05-08 19:08 | 51.46836 | 0.48427 | 38099 ft | 419 kts | 316° |
| 2026-05-08 19:08 | 51.51223 | 0.42280 | 38105 ft | 418 kts | 316° |
| 2026-05-08 19:09 | 51.55574 | 0.36169 | 38097 ft | 418 kts | 316° |
| 2026-05-08 19:09 | 51.59948 | 0.30007 | 38104 ft | 418 kts | 316° |
| 2026-05-08 19:10 | 51.64323 | 0.23828 | 38105 ft | 418 kts | 316° |
| 2026-05-08 19:10 | 51.68705 | 0.17623 | 38103 ft | 419 kts | 316° |
| 2026-05-08 19:11 | 51.73083 | 0.11408 | 38123 ft | 420 kts | 316° |
| 2026-05-08 19:11 | 51.77450 | 0.05190 | 38123 ft | 421 kts | 316° |
| 2026-05-08 19:12 | 51.81819 | -0.01046 | 38127 ft | 422 kts | 316° |
| 2026-05-08 19:12 | 51.86213 | -0.07336 | 38099 ft | 422 kts | 316° |
| 2026-05-08 19:13 | 51.90639 | -0.13689 | 37516 ft | 428 kts | 316° |
| 2026-05-08 19:13 | 51.92857 | -0.16879 | 36935 ft | 425 kts | 316° |
| 2026-05-08 19:13 | 51.95060 | -0.20049 | 36379 ft | 422 kts | 316° |
| 2026-05-08 19:13 | 51.97247 | -0.23202 | 35857 ft | 419 kts | 316° |
| 2026-05-08 19:14 | 51.99412 | -0.26326 | 35422 ft | 414 kts | 315° |
| 2026-05-08 19:14 | 52.01551 | -0.29417 | 34986 ft | 409 kts | 315° |
| 2026-05-08 19:14 | 52.03665 | -0.32477 | 34558 ft | 405 kts | 315° |
| 2026-05-08 19:14 | 52.05737 | -0.35480 | 34141 ft | 401 kts | 315° |
| 2026-05-08 19:15 | 52.07820 | -0.38505 | 33662 ft | 397 kts | 315° |
| 2026-05-08 19:15 | 52.09869 | -0.41483 | 33233 ft | 392 kts | 315° |
| 2026-05-08 19:15 | 52.11892 | -0.44428 | 32798 ft | 389 kts | 315° |
| 2026-05-08 19:15 | 52.13897 | -0.47349 | 32391 ft | 385 kts | 315° |
| 2026-05-08 19:16 | 52.15881 | -0.50245 | 31973 ft | 382 kts | 315° |
| 2026-05-08 19:16 | 52.17852 | -0.53125 | 31558 ft | 379 kts | 315° |
| 2026-05-08 19:16 | 52.19809 | -0.55988 | 31167 ft | 377 kts | 314° |
| 2026-05-08 19:16 | 52.21753 | -0.58835 | 30765 ft | 374 kts | 314° |
| 2026-05-08 19:17 | 52.23682 | -0.61664 | 30375 ft | 372 kts | 314° |
| 2026-05-08 19:17 | 52.25604 | -0.64487 | 29960 ft | 371 kts | 314° |
| 2026-05-08 19:17 | 52.27514 | -0.67295 | 29500 ft | 368 kts | 314° |
| 2026-05-08 19:17 | 52.29409 | -0.70083 | 29085 ft | 365 kts | 314° |
| 2026-05-08 19:18 | 52.31157 | -0.72660 | 28702 ft | 362 kts | 314° |
| 2026-05-08 19:18 | 52.32820 | -0.75111 | 28326 ft | 360 kts | 314° |
| 2026-05-08 19:18 | 52.34675 | -0.77851 | 27925 ft | 358 kts | 314° |
| 2026-05-08 19:18 | 52.36517 | -0.80574 | 27513 ft | 356 kts | 314° |
| 2026-05-08 19:19 | 52.38328 | -0.83256 | 27120 ft | 354 kts | 314° |
| 2026-05-08 19:19 | 52.40154 | -0.85962 | 26723 ft | 353 kts | 314° |
| 2026-05-08 19:19 | 52.41970 | -0.88657 | 26328 ft | 352 kts | 314° |
| 2026-05-08 19:19 | 52.43779 | -0.91345 | 25909 ft | 351 kts | 314° |
| 2026-05-08 19:20 | 52.45592 | -0.94044 | 25308 ft | 357 kts | 314° |
| 2026-05-08 19:20 | 52.46215 | -0.94971 | 25168 ft | 357 kts | 314° |
| 2026-05-08 19:20 | 52.48054 | -0.97710 | 24735 ft | 357 kts | 314° |
| 2026-05-08 19:21 | 52.48492 | -0.98363 | 24636 ft | 357 kts | 314° |
| 2026-05-08 19:21 | 52.50421 | -1.01240 | 24232 ft | 356 kts | 314° |
| 2026-05-08 19:21 | 52.52254 | -1.03976 | 23863 ft | 355 kts | 314° |
| 2026-05-08 19:21 | 52.54074 | -1.06698 | 23449 ft | 354 kts | 314° |
| 2026-05-08 19:22 | 52.55894 | -1.09422 | 23016 ft | 353 kts | 314° |
| 2026-05-08 19:22 | 52.57701 | -1.12130 | 22638 ft | 351 kts | 314° |
| 2026-05-08 19:22 | 52.59501 | -1.14831 | 22252 ft | 349 kts | 314° |
| 2026-05-08 19:22 | 52.61285 | -1.17511 | 21884 ft | 346 kts | 314° |
| 2026-05-08 19:23 | 52.63060 | -1.20181 | 21491 ft | 345 kts | 314° |
| 2026-05-08 19:23 | 52.64826 | -1.22840 | 21118 ft | 343 kts | 314° |
| 2026-05-08 19:23 | 52.66549 | -1.25437 | 20761 ft | 342 kts | 314° |
| 2026-05-08 19:23 | 52.68303 | -1.28083 | 20391 ft | 341 kts | 314° |
| 2026-05-08 19:24 | 52.69440 | -1.29800 | 20154 ft | 340 kts | 314° |
| 2026-05-08 19:24 | 52.71051 | -1.32140 | 19796 ft | 342 kts | 317° |
| 2026-05-08 19:24 | 52.72900 | -1.34630 | 19385 ft | 344 kts | 319° |
| 2026-05-08 19:24 | 52.74786 | -1.37100 | 19044 ft | 346 kts | 319° |
| 2026-05-08 19:25 | 52.76679 | -1.39569 | 18637 ft | 346 kts | 319° |
| 2026-05-08 19:25 | 52.78567 | -1.42040 | 18203 ft | 346 kts | 319° |
| 2026-05-08 19:25 | 52.80428 | -1.44486 | 17743 ft | 346 kts | 319° |
| 2026-05-08 19:25 | 52.82304 | -1.46965 | 17311 ft | 345 kts | 319° |
| 2026-05-08 19:26 | 52.84166 | -1.49433 | 16894 ft | 343 kts | 319° |
| 2026-05-08 19:26 | 52.86023 | -1.51901 | 16482 ft | 341 kts | 318° |
| 2026-05-08 19:26 | 52.87867 | -1.54357 | 16084 ft | 340 kts | 318° |
| 2026-05-08 19:26 | 52.89702 | -1.56806 | 15681 ft | 338 kts | 318° |
| 2026-05-08 19:27 | 52.91528 | -1.59245 | 15282 ft | 336 kts | 318° |
| 2026-05-08 19:27 | 52.93321 | -1.61641 | 14880 ft | 326 kts | 318° |
| 2026-05-08 19:27 | 52.95059 | -1.63965 | 14495 ft | 316 kts | 317° |
| 2026-05-08 19:27 | 52.96745 | -1.66223 | 14123 ft | 308 kts | 317° |
| 2026-05-08 19:28 | 52.98398 | -1.68442 | 13762 ft | 304 kts | 317° |
| 2026-05-08 19:28 | 53.00032 | -1.70639 | 13367 ft | 302 kts | 317° |
| 2026-05-08 19:28 | 53.01672 | -1.72848 | 12994 ft | 305 kts | 317° |
| 2026-05-08 19:28 | 53.03330 | -1.75085 | 12628 ft | 307 kts | 318° |
| 2026-05-08 19:29 | 53.04984 | -1.77315 | 12259 ft | 305 kts | 318° |
| 2026-05-08 19:29 | 53.06627 | -1.79531 | 11887 ft | 303 kts | 318° |
| 2026-05-08 19:29 | 53.08052 | -1.81454 | 11573 ft | 304 kts | 318° |
| 2026-05-08 19:29 | 53.09644 | -1.83608 | 11251 ft | 309 kts | 319° |
| 2026-05-08 19:30 | 53.11319 | -1.85876 | 10864 ft | 310 kts | 319° |
| 2026-05-08 19:30 | 53.12990 | -1.88138 | 10507 ft | 309 kts | 319° |
| 2026-05-08 19:30 | 53.14645 | -1.90381 | 10138 ft | 304 kts | 319° |
| 2026-05-08 19:30 | 53.16246 | -1.92551 | 10025 ft | 286 kts | 319° |
| 2026-05-08 19:31 | 53.17777 | -1.94630 | 9481 ft | 284 kts | 319° |
| 2026-05-08 19:31 | 53.19291 | -1.96608 | 9102 ft | 278 kts | 327° |
| 2026-05-08 19:31 | 53.21113 | -1.97620 | 8755 ft | 280 kts | 356° |
| 2026-05-08 19:31 | 53.23024 | -1.97194 | 8510 ft | 277 kts | 17° |
| 2026-05-08 19:32 | 53.24842 | -1.96203 | 8361 ft | 274 kts | 19° |
| 2026-05-08 19:32 | 53.26660 | -1.95142 | 8160 ft | 277 kts | 20° |
| 2026-05-08 19:32 | 53.28498 | -1.94060 | 8137 ft | 282 kts | 19° |
| 2026-05-08 19:32 | 53.30334 | -1.92971 | 8076 ft | 278 kts | 20° |
| 2026-05-08 19:33 | 53.32139 | -1.91899 | 7823 ft | 275 kts | 20° |
| 2026-05-08 19:33 | 53.33947 | -1.90827 | 7479 ft | 276 kts | 20° |
| 2026-05-08 19:33 | 53.35755 | -1.89758 | 7195 ft | 275 kts | 20° |
| 2026-05-08 19:33 | 53.37558 | -1.88693 | 6920 ft | 274 kts | 20° |
| 2026-05-08 19:34 | 53.39357 | -1.87637 | 6646 ft | 273 kts | 20° |
| 2026-05-08 19:34 | 53.41153 | -1.86621 | 6354 ft | 272 kts | 14° |
| 2026-05-08 19:34 | 53.43023 | -1.86303 | 6049 ft | 268 kts | 1° |
| 2026-05-08 19:34 | 53.44881 | -1.86270 | 5540 ft | 267 kts | 0° |
| 2026-05-08 19:35 | 53.46663 | -1.86630 | 5387 ft | 250 kts | 339° |
| 2026-05-08 19:35 | 53.48022 | -1.88200 | 5159 ft | 235 kts | 307° |
| 2026-05-08 19:35 | 53.48666 | -1.90632 | 4930 ft | 228 kts | 275° |
| 2026-05-08 19:35 | 53.48813 | -1.93290 | 4761 ft | 226 kts | 271° |
| 2026-05-08 19:36 | 53.48908 | -1.95899 | 4562 ft | 227 kts | 270° |
| 2026-05-08 19:36 | 53.48797 | -1.98503 | 4291 ft | 220 kts | 245° |
| 2026-05-08 19:36 | 53.48060 | -2.00658 | 4039 ft | 209 kts | 235° |
| 2026-05-08 19:36 | 53.47301 | -2.02647 | 3786 ft | 201 kts | 232° |
| 2026-05-08 19:37 | 53.46479 | -2.04502 | 3515 ft | 194 kts | 229° |
| 2026-05-08 19:37 | 53.45649 | -2.06244 | 3256 ft | 189 kts | 228° |
| 2026-05-08 19:37 | 53.44833 | -2.07931 | 2998 ft | 184 kts | 228° |
| 2026-05-08 19:37 | 53.44035 | -2.09577 | 2766 ft | 180 kts | 228° |
| 2026-05-08 19:38 | 53.43250 | -2.11199 | 2509 ft | 178 kts | 228° |
| 2026-05-08 19:38 | 53.42475 | -2.12799 | 2268 ft | 175 kts | 228° |
| 2026-05-08 19:38 | 53.41708 | -2.14383 | 2036 ft | 175 kts | 228° |
| 2026-05-08 19:38 | 53.40963 | -2.15927 | 1837 ft | 163 kts | 229° |
| 2026-05-08 19:39 | 53.40276 | -2.17348 | 1585 ft | 152 kts | 229° |
| 2026-05-08 19:39 | 53.39648 | -2.18691 | 1308 ft | 152 kts | 228° |
| 2026-05-08 19:39 | 53.38953 | -2.20057 | 1173 ft | 148 kts | 236° |
| 2026-05-08 19:39 | 53.38281 | -2.21458 | 990 ft | 164 kts | 229° |
| 2026-05-08 19:40 | 53.37580 | -2.22913 | 770 ft | 158 kts | 227° |
| 2026-05-08 19:40 | 53.36915 | -2.24282 | 541 ft | 143 kts | 230° |
| 2026-05-08 19:40 | 53.36320 | -2.25523 | 334 ft | 133 kts | 231° |
| 2026-05-08 19:40 | 53.35838 | -2.26537 | 266 ft | 121 kts | 231° |
| 2026-05-08 19:41 | 53.35422 | -2.27403 | 252 ft | 65 kts | 231° |
| 2026-05-08 19:41 | 53.35316 | -2.27629 | 248 ft | 1 kts | 255° |
| 2026-05-08 19:41 | 53.35302 | -2.27696 | 245 ft | 14 kts | 240° |
| 2026-05-08 19:41 | 53.35256 | -2.27895 | 238 ft | 21 kts | 258° |
| 2026-05-08 19:42 | 53.35233 | -2.28126 | 239 ft | 12 kts | 262° |
| 2026-05-08 19:42 | 53.35231 | -2.28169 | 236 ft | 1 kts | 274° |
| 2026-05-08 19:42 | 53.35244 | -2.28203 | 238 ft | 5 kts | 321° |
| 2026-05-08 19:42 | 53.35245 | -2.28204 | 238 ft | 1 kts | 323° |
| 2026-05-08 19:43 | 53.35267 | -2.28220 | 239 ft | 7 kts | 347° |
| 2026-05-08 19:43 | 53.35309 | -2.28184 | 237 ft | 6 kts | 59° |
| 2026-05-08 19:43 | 53.35335 | -2.28124 | 239 ft | 6 kts | 50° |
| 2026-05-08 19:43 | 53.35365 | -2.28071 | 240 ft | 6 kts | 45° |
| 2026-05-08 19:44 | 53.35392 | -2.28026 | 242 ft | 6 kts | 45° |
| 2026-05-08 19:44 | 53.35421 | -2.27977 | 243 ft | 6 kts | 45° |
| 2026-05-08 19:44 | 53.35454 | -2.27935 | 245 ft | 6 kts | 30° |
| 2026-05-08 19:44 | 53.35493 | -2.27920 | 246 ft | 6 kts | 8° |
| 2026-05-08 19:45 | 53.35532 | -2.27912 | 247 ft | 6 kts | 5° |
| 2026-05-08 19:45 | 53.35572 | -2.27905 | 248 ft | 6 kts | 6° |
| 2026-05-08 19:45 | 53.35576 | -2.27904 | 248 ft | 0 kts | 6° |
| 2026-05-08 19:45 | 53.35577 | -2.27904 | 248 ft | 0 kts | 6° |
| 2026-05-08 19:46 | 53.35596 | -2.27901 | 248 ft | 6 kts | 6° |
| 2026-05-08 19:46 | 53.35638 | -2.27894 | 249 ft | 7 kts | 6° |
| 2026-05-08 19:46 | 53.35738 | -2.27877 | 253 ft | 7 kts | 6° |
| 2026-05-08 19:47 | 53.35786 | -2.27868 | 254 ft | 8 kts | 6° |
| 2026-05-08 19:47 | 53.35847 | -2.27857 | 254 ft | 9 kts | 4° |
| 2026-05-08 19:47 | 53.35918 | -2.27848 | 254 ft | 11 kts | 5° |
| 2026-05-08 19:47 | 53.36004 | -2.27833 | 254 ft | 13 kts | 7° |
| 2026-05-08 19:48 | 53.36086 | -2.27884 | 254 ft | 13 kts | 316° |
| 2026-05-08 19:48 | 53.36149 | -2.27990 | 254 ft | 13 kts | 315° |
| 2026-05-08 19:48 | 53.36209 | -2.28092 | 254 ft | 12 kts | 315° |
| 2026-05-08 19:48 | 53.36268 | -2.28191 | 254 ft | 12 kts | 315° |
| 2026-05-08 19:49 | 53.36325 | -2.28288 | 254 ft | 12 kts | 315° |
| 2026-05-08 19:49 | 53.36382 | -2.28382 | 254 ft | 11 kts | 315° |
| 2026-05-08 19:49 | 53.36436 | -2.28474 | 254 ft | 11 kts | 314° |
| 2026-05-08 19:49 | 53.36492 | -2.28568 | 254 ft | 12 kts | 315° |
| 2026-05-08 19:50 | 53.36550 | -2.28666 | 254 ft | 10 kts | 313° |
| 2026-05-08 19:50 | 53.36576 | -2.28758 | 254 ft | 7 kts | 276° |
| 2026-05-08 19:50 | 53.36553 | -2.28819 | 254 ft | 6 kts | 224° |
| 2026-05-08 19:50 | 53.36533 | -2.28851 | 254 ft | 2 kts | 225° |
| 2026-05-08 19:51 | 53.36531 | -2.28855 | 254 ft | 0 kts | 225° |